Time;durP1;ratioP1;P1;durP2;ratioP2;P2;SDS_P1;SDS_P2;PMS_P1;PMS_P2;Temp;Humidity;BMP_temperature;BMP_pressure;BME280_temperature;BME280_humidity;BME280_pressure;Samples;Min_cycle;Max_cycle;Signal;HPM_P1;HPM_P2
2021/08/20 00:00:35;;;;;;;3.00;2.80;;;;;;;;;;4980967;28;24955;-61
2021/08/20 00:03:00;;;;;;;2.63;2.53;;;;;;;;;;4982859;28;24448;-62
2021/08/20 00:05:25;;;;;;;2.80;2.60;;;;;;;;;;4982602;28;24397;-62
2021/08/20 00:07:50;;;;;;;3.10;2.90;;;;;;;;;;4963277;28;24421;-62
2021/08/20 00:10:16;;;;;;;3.30;3.10;;;;;;;;;;4979349;28;24819;-62
2021/08/20 00:12:41;;;;;;;2.70;2.50;;;;;;;;;;4978849;28;24476;-63
2021/08/20 00:15:06;;;;;;;3.10;2.90;;;;;;;;;;4984323;28;24448;-62
2021/08/20 00:17:32;;;;;;;3.27;3.07;;;;;;;;;;4982635;28;24839;-62
2021/08/20 00:19:57;;;;;;;3.40;3.20;;;;;;;;;;4978797;28;24433;-62
2021/08/20 00:22:22;;;;;;;3.27;3.07;;;;;;;;;;4978914;28;24431;-62
2021/08/20 00:24:47;;;;;;;3.20;3.00;;;;;;;;;;4980654;28;24953;-62
2021/08/20 00:27:13;;;;;;;3.00;2.80;;;;;;;;;;4984590;28;24565;-61
2021/08/20 00:29:38;;;;;;;3.00;2.80;;;;;;;;;;4982645;28;24427;-62
2021/08/20 00:32:03;;;;;;;3.43;3.23;;;;;;;;;;4978712;28;25006;-60
2021/08/20 00:34:28;;;;;;;3.30;3.10;;;;;;;;;;4978634;28;24489;-61
2021/08/20 00:36:54;;;;;;;3.00;2.80;;;;;;;;;;4980951;28;24915;-60
2021/08/20 00:39:19;;;;;;;3.10;2.90;;;;;;;;;;4984040;28;24389;-60
2021/08/20 00:41:44;;;;;;;3.20;3.00;;;;;;;;;;4983910;28;24938;-62
2021/08/20 00:44:10;;;;;;;3.40;3.20;;;;;;;;;;4979044;28;24449;-62
2021/08/20 00:46:36;;;;;;;3.13;2.93;;;;;;;;;;4978910;28;25069;-62
2021/08/20 00:49:01;;;;;;;3.00;2.80;;;;;;;;;;4982529;28;24797;-62
2021/08/20 00:51:27;;;;;;;3.03;2.83;;;;;;;;;;4984139;28;24432;-61
2021/08/20 00:53:54;;;;;;;2.65;2.55;;;;;;;;;;4978609;28;24460;-62
2021/08/20 00:56:19;;;;;;;3.08;2.88;;;;;;;;;;4979745;28;24408;-62
2021/08/20 00:58:46;;;;;;;3.10;2.90;;;;;;;;;;4981676;28;24393;-62
2021/08/20 01:01:11;;;;;;;3.30;3.10;;;;;;;;;;4987892;28;24396;-61
2021/08/20 01:03:37;;;;;;;3.38;3.17;;;;;;;;;;4985747;28;24756;-62
2021/08/20 01:06:02;;;;;;;2.87;2.70;;;;;;;;;;4982232;28;24466;-61
2021/08/20 01:08:28;;;;;;;3.10;2.90;;;;;;;;;;4983366;28;24537;-61
2021/08/20 01:10:55;;;;;;;2.95;2.75;;;;;;;;;;4985238;28;24400;-62
2021/08/20 01:13:20;;;;;;;3.00;2.80;;;;;;;;;;4985442;28;24401;-61
2021/08/20 01:15:46;;;;;;;3.00;2.80;;;;;;;;;;4983913;28;24958;-62
2021/08/20 01:18:23;;;;;;;2.85;2.65;;;;;;;;;;4982056;28;24397;-61
2021/08/20 01:20:49;;;;;;;2.90;2.70;;;;;;;;;;4983338;28;24432;-62
2021/08/20 01:23:14;;;;;;;2.92;2.72;;;;;;;;;;4986846;28;24954;-62
2021/08/20 01:25:39;;;;;;;3.20;3.00;;;;;;;;;;4985175;28;24938;-62
2021/08/20 01:28:06;;;;;;;3.38;3.17;;;;;;;;;;4981790;28;24395;-62
2021/08/20 01:30:31;;;;;;;2.90;2.70;;;;;;;;;;4981708;28;24386;-62
2021/08/20 01:32:56;;;;;;;2.80;2.60;;;;;;;;;;4985127;28;24486;-61
2021/08/20 01:35:22;;;;;;;2.63;2.50;;;;;;;;;;4986597;28;24520;-61
2021/08/20 01:37:47;;;;;;;2.70;2.50;;;;;;;;;;4983143;28;24500;-62
2021/08/20 01:40:13;;;;;;;2.67;2.47;;;;;;;;;;4981591;28;24484;-62
2021/08/20 01:42:38;;;;;;;2.50;2.40;;;;;;;;;;4981451;28;24472;-62
2021/08/20 01:45:03;;;;;;;2.63;2.53;;;;;;;;;;4985053;28;24460;-63
2021/08/20 01:47:28;;;;;;;2.70;2.50;;;;;;;;;;4986960;28;24397;-62
2021/08/20 01:49:54;;;;;;;2.63;2.43;;;;;;;;;;4982871;28;24403;-63
2021/08/20 01:52:19;;;;;;;3.30;3.10;;;;;;;;;;4981174;28;24428;-62
2021/08/20 01:54:44;;;;;;;3.00;2.80;;;;;;;;;;4982619;28;24437;-62
2021/08/20 01:57:09;;;;;;;3.15;2.95;;;;;;;;;;4981326;28;24962;-62
2021/08/20 01:59:35;;;;;;;3.10;2.90;;;;;;;;;;4984799;28;24464;-62
2021/08/20 02:02:00;;;;;;;3.00;2.80;;;;;;;;;;4984987;28;25006;-61
2021/08/20 02:04:26;;;;;;;2.60;2.50;;;;;;;;;;4982903;28;24445;-62
2021/08/20 02:06:51;;;;;;;2.83;2.65;;;;;;;;;;4981281;28;24401;-62
2021/08/20 02:09:16;;;;;;;2.40;2.30;;;;;;;;;;4982269;28;24974;-63
2021/08/20 02:11:41;;;;;;;2.70;2.50;;;;;;;;;;4984492;28;24412;-62
2021/08/20 02:14:07;;;;;;;2.50;2.40;;;;;;;;;;4984536;28;24392;-62
2021/08/20 02:16:32;;;;;;;2.80;2.60;;;;;;;;;;4982864;28;25005;-62
2021/08/20 02:18:57;;;;;;;2.63;2.42;;;;;;;;;;4980813;28;24484;-62
2021/08/20 02:21:22;;;;;;;3.10;2.90;;;;;;;;;;4982622;28;24966;-62
2021/08/20 02:23:47;;;;;;;2.80;2.60;;;;;;;;;;4982575;28;24412;-63
2021/08/20 02:26:12;;;;;;;2.83;2.73;;;;;;;;;;4986357;28;24397;-62
2021/08/20 02:28:37;;;;;;;3.50;3.30;;;;;;;;;;4982378;28;24565;-62
2021/08/20 02:31:02;;;;;;;3.20;3.00;;;;;;;;;;4980638;28;24948;-62
2021/08/20 02:33:28;;;;;;;3.10;2.90;;;;;;;;;;4980429;28;24389;-62
2021/08/20 02:35:53;;;;;;;3.17;2.97;;;;;;;;;;4983785;28;24533;-61
2021/08/20 02:38:18;;;;;;;3.60;3.30;;;;;;;;;;4985729;28;24397;-61
2021/08/20 02:40:43;;;;;;;3.20;3.00;;;;;;;;;;4981935;28;24476;-61
2021/08/20 02:43:08;;;;;;;3.10;2.90;;;;;;;;;;4980510;28;24950;-61
2021/08/20 02:45:33;;;;;;;2.80;2.70;;;;;;;;;;4980122;28;24385;-61
2021/08/20 02:47:59;;;;;;;3.00;2.80;;;;;;;;;;4982061;28;24760;-62
2021/08/20 02:50:24;;;;;;;3.00;2.80;;;;;;;;;;4985578;28;24389;-62
2021/08/20 02:52:49;;;;;;;3.30;3.10;;;;;;;;;;4983532;28;24993;-61
2021/08/20 02:55:14;;;;;;;3.10;2.90;;;;;;;;;;4980193;28;24553;-61
2021/08/20 02:57:39;;;;;;;2.97;2.78;;;;;;;;;;4980018;28;24497;-62
2021/08/20 03:00:06;;;;;;;3.50;3.30;;;;;;;;;;4981357;28;21394;-61
2021/08/20 03:02:32;;;;;;;4.10;3.80;;;;;;;;;;4985381;28;24390;-61
2021/08/20 03:04:57;;;;;;;3.30;3.10;;;;;;;;;;4981741;28;24424;-61
2021/08/20 03:07:22;;;;;;;4.00;3.70;;;;;;;;;;4979873;28;24446;-62
2021/08/20 03:09:47;;;;;;;3.60;3.40;;;;;;;;;;4981420;28;24428;-62
2021/08/20 03:12:12;;;;;;;3.60;3.30;;;;;;;;;;4979923;28;24479;-62
2021/08/20 03:14:37;;;;;;;3.27;3.07;;;;;;;;;;4984913;28;24400;-62
2021/08/20 03:17:03;;;;;;;3.30;3.10;;;;;;;;;;4983299;28;24751;-62
2021/08/20 03:19:28;;;;;;;3.50;3.30;;;;;;;;;;4979935;28;25028;-62
2021/08/20 03:21:54;;;;;;;3.80;3.60;;;;;;;;;;4980442;28;24401;-62
2021/08/20 03:24:19;;;;;;;3.70;3.50;;;;;;;;;;4979458;28;24948;-62
2021/08/20 03:26:44;;;;;;;4.10;3.80;;;;;;;;;;4984776;28;24516;-62
2021/08/20 03:29:09;;;;;;;3.97;3.67;;;;;;;;;;4983229;28;24727;-62
2021/08/20 03:31:35;;;;;;;4.07;3.77;;;;;;;;;;4979323;28;24524;-62
2021/08/20 03:34:00;;;;;;;4.10;3.80;;;;;;;;;;4978940;28;24971;-61
2021/08/20 03:36:26;;;;;;;5.13;4.83;;;;;;;;;;4981270;28;24447;-61
2021/08/20 03:38:52;;;;;;;5.60;5.20;;;;;;;;;;4984092;28;24392;-62
2021/08/20 03:41:17;;;;;;;5.40;5.10;;;;;;;;;;4981354;28;24432;-62
2021/08/20 03:43:43;;;;;;;6.97;6.47;;;;;;;;;;4980831;28;24527;-62
2021/08/20 03:46:09;;;;;;;8.10;7.60;;;;;;;;;;4979315;28;24492;-62
2021/08/20 03:48:35;;;;;;;6.32;5.93;;;;;;;;;;4980992;28;24425;-62
2021/08/20 03:51:00;;;;;;;6.20;5.80;;;;;;;;;;4982442;28;24440;-62
2021/08/20 03:53:25;;;;;;;6.93;6.43;;;;;;;;;;4982732;28;24471;-62
2021/08/20 03:55:50;;;;;;;6.47;6.07;;;;;;;;;;4980507;28;25285;-62
2021/08/20 03:58:16;;;;;;;5.60;5.30;;;;;;;;;;4979226;28;24796;-62
2021/08/20 04:00:44;;;;;;;5.78;5.38;;;;;;;;;;4978781;28;24980;-62
2021/08/20 04:03:09;;;;;;;6.10;5.70;;;;;;;;;;4980916;28;24443;-62
2021/08/20 04:05:34;;;;;;;6.28;5.80;;;;;;;;;;4984461;28;24496;-62
2021/08/20 04:07:59;;;;;;;6.78;6.38;;;;;;;;;;4980616;28;24393;-61
2021/08/20 04:10:24;;;;;;;6.10;5.70;;;;;;;;;;4978989;28;24384;-61
2021/08/20 04:12:50;;;;;;;5.57;5.17;;;;;;;;;;4980350;28;24699;-61
2021/08/20 04:15:15;;;;;;;4.70;4.40;;;;;;;;;;4981113;28;24440;-62
2021/08/20 04:17:41;;;;;;;5.45;5.15;;;;;;;;;;4984241;28;24970;-61
2021/08/20 04:20:06;;;;;;;5.47;5.18;;;;;;;;;;4980451;28;24405;-62
2021/08/20 04:22:31;;;;;;;5.80;5.40;;;;;;;;;;4978964;28;24413;-62
2021/08/20 04:24:56;;;;;;;4.83;4.50;;;;;;;;;;4978662;28;24400;-61
2021/08/20 04:27:21;;;;;;;4.93;4.63;;;;;;;;;;4982656;28;24393;-61
2021/08/20 04:29:47;;;;;;;5.10;4.80;;;;;;;;;;4984234;28;24416;-61
2021/08/20 04:32:12;;;;;;;5.20;4.80;;;;;;;;;;4981187;28;24420;-61
2021/08/20 04:34:37;;;;;;;4.75;4.35;;;;;;;;;;4982696;28;25383;-62
2021/08/20 04:37:02;;;;;;;4.80;4.50;;;;;;;;;;4982320;28;24405;-61
2021/08/20 04:39:27;;;;;;;4.27;3.97;;;;;;;;;;4984467;28;24468;-62
2021/08/20 04:41:52;;;;;;;4.90;4.60;;;;;;;;;;4986112;28;24903;-62
2021/08/20 04:44:17;;;;;;;4.18;3.88;;;;;;;;;;4986163;28;24449;-61
2021/08/20 04:46:43;;;;;;;4.10;3.80;;;;;;;;;;4984343;28;24547;-62
2021/08/20 04:49:08;;;;;;;5.00;4.60;;;;;;;;;;4982250;28;24423;-62
2021/08/20 04:51:34;;;;;;;4.70;4.40;;;;;;;;;;4985841;28;24911;-62
2021/08/20 04:53:59;;;;;;;4.90;4.60;;;;;;;;;;4985680;28;24424;-62
2021/08/20 04:56:24;;;;;;;3.83;3.63;;;;;;;;;;4983959;28;24389;-62
2021/08/20 04:58:50;;;;;;;4.80;4.50;;;;;;;;;;4984177;28;24440;-62
2021/08/20 05:01:16;;;;;;;5.07;4.77;;;;;;;;;;4982462;28;24392;-62
2021/08/20 05:03:41;;;;;;;4.10;3.80;;;;;;;;;;4985778;28;24404;-63
2021/08/20 05:06:06;;;;;;;3.90;3.70;;;;;;;;;;4985323;28;24483;-62
2021/08/20 05:08:31;;;;;;;4.20;3.90;;;;;;;;;;4983991;28;24755;-63
2021/08/20 05:10:56;;;;;;;3.70;3.50;;;;;;;;;;4982045;28;24560;-63
2021/08/20 05:13:22;;;;;;;4.20;3.90;;;;;;;;;;4983943;28;24400;-62
2021/08/20 05:15:47;;;;;;;4.70;4.40;;;;;;;;;;4985403;28;24401;-62
2021/08/20 05:18:12;;;;;;;4.20;3.90;;;;;;;;;;4985606;28;24428;-62
2021/08/20 05:20:37;;;;;;;4.65;4.35;;;;;;;;;;4985109;28;24397;-62
2021/08/20 05:23:02;;;;;;;4.80;4.50;;;;;;;;;;4981422;28;25091;-62
2021/08/20 05:25:31;;;;;;;4.23;3.93;;;;;;;;;;4981947;28;24451;-63
2021/08/20 05:27:56;;;;;;;4.20;3.90;;;;;;;;;;4981695;28;24421;-64
2021/08/20 05:30:21;;;;;;;3.60;3.40;;;;;;;;;;4983502;28;24397;-63
2021/08/20 05:32:46;;;;;;;3.43;3.23;;;;;;;;;;4986849;28;24614;-63
2021/08/20 05:35:12;;;;;;;4.00;3.70;;;;;;;;;;4984872;28;24385;-63
2021/08/20 05:37:38;;;;;;;3.70;3.40;;;;;;;;;;4981459;28;24415;-63
2021/08/20 05:40:04;;;;;;;3.75;3.55;;;;;;;;;;4981409;28;24939;-63
2021/08/20 05:42:29;;;;;;;4.40;4.10;;;;;;;;;;4981617;28;24747;-62
2021/08/20 05:44:55;;;;;;;4.70;4.30;;;;;;;;;;4984047;28;24928;-63
2021/08/20 05:47:20;;;;;;;4.90;4.60;;;;;;;;;;4987014;28;24886;-63
2021/08/20 05:49:45;;;;;;;4.53;4.13;;;;;;;;;;4982997;28;24576;-62
2021/08/20 05:52:10;;;;;;;4.10;3.80;;;;;;;;;;4980971;28;24524;-62
2021/08/20 05:54:35;;;;;;;4.27;3.97;;;;;;;;;;4981015;28;24971;-62
2021/08/20 05:57:01;;;;;;;4.87;4.47;;;;;;;;;;4982852;28;24393;-62
2021/08/20 05:59:26;;;;;;;4.00;3.70;;;;;;;;;;4986525;28;24992;-62
2021/08/20 06:01:51;;;;;;;4.40;4.10;;;;;;;;;;4985031;28;24437;-63
2021/08/20 06:04:16;;;;;;;4.60;4.20;;;;;;;;;;4981054;28;24957;-62
2021/08/20 06:06:41;;;;;;;4.93;4.53;;;;;;;;;;4980718;28;24470;-62
2021/08/20 06:09:06;;;;;;;4.60;4.20;;;;;;;;;;4980922;28;24985;-62
2021/08/20 06:11:32;;;;;;;4.40;4.00;;;;;;;;;;4986289;28;24969;-61
2021/08/20 06:13:57;;;;;;;3.75;3.45;;;;;;;;;;4984266;28;24405;-62
2021/08/20 06:16:22;;;;;;;3.90;3.60;;;;;;;;;;4980250;28;24447;-62
2021/08/20 06:18:48;;;;;;;4.50;4.20;;;;;;;;;;4978536;28;24504;-62
2021/08/20 06:21:13;;;;;;;3.80;3.57;;;;;;;;;;4980240;28;24458;-62
2021/08/20 06:23:38;;;;;;;3.40;3.20;;;;;;;;;;4982208;28;24432;-62
2021/08/20 06:26:03;;;;;;;3.90;3.60;;;;;;;;;;4983889;28;24408;-62
2021/08/20 06:28:30;;;;;;;4.20;3.90;;;;;;;;;;4983677;28;24381;-62
2021/08/20 06:30:55;;;;;;;4.28;3.97;;;;;;;;;;4980283;28;24790;-62
2021/08/20 06:33:20;;;;;;;3.65;3.35;;;;;;;;;;4982116;28;24943;-62
2021/08/20 06:35:45;;;;;;;4.30;3.90;;;;;;;;;;4983153;28;24389;-62
2021/08/20 06:38:10;;;;;;;3.60;3.30;;;;;;;;;;4983785;28;24384;-62
2021/08/20 06:40:35;;;;;;;4.43;4.03;;;;;;;;;;4981796;28;24405;-61
2021/08/20 06:43:01;;;;;;;4.20;3.80;;;;;;;;;;4979859;28;24393;-62
2021/08/20 06:45:26;;;;;;;3.63;3.33;;;;;;;;;;4980310;28;24429;-62
2021/08/20 06:47:52;;;;;;;3.50;3.20;;;;;;;;;;4981990;28;25299;-62
2021/08/20 06:50:17;;;;;;;3.50;3.30;;;;;;;;;;4985040;28;24403;-62
2021/08/20 06:52:42;;;;;;;3.90;3.60;;;;;;;;;;4983362;28;24954;-62
2021/08/20 06:55:07;;;;;;;4.00;3.70;;;;;;;;;;4979256;28;24519;-62
2021/08/20 06:57:32;;;;;;;3.90;3.60;;;;;;;;;;4979120;28;24413;-62
2021/08/20 06:59:58;;;;;;;3.92;3.70;;;;;;;;;;4981350;28;24937;-62
2021/08/20 07:02:23;;;;;;;4.10;3.80;;;;;;;;;;4984960;28;24409;-63
2021/08/20 07:04:49;;;;;;;3.80;3.50;;;;;;;;;;4984930;28;24448;-62
2021/08/20 07:07:15;;;;;;;3.90;3.60;;;;;;;;;;4979950;28;24744;-62
2021/08/20 07:09:40;;;;;;;4.47;4.17;;;;;;;;;;4979774;28;24412;-62
2021/08/20 07:12:05;;;;;;;4.55;4.20;;;;;;;;;;4979396;28;24413;-62
2021/08/20 07:14:30;;;;;;;3.57;3.27;;;;;;;;;;4981409;28;24877;-62
2021/08/20 07:16:55;;;;;;;3.70;3.50;;;;;;;;;;4982564;28;24753;-62
2021/08/20 07:19:20;;;;;;;3.90;3.60;;;;;;;;;;4982635;28;24409;-63
2021/08/20 07:21:46;;;;;;;4.20;3.90;;;;;;;;;;4981352;28;24416;-62
2021/08/20 07:24:11;;;;;;;3.30;3.10;;;;;;;;;;4979463;28;25009;-62
2021/08/20 07:26:36;;;;;;;3.50;3.20;;;;;;;;;;4982902;28;24397;-63
2021/08/20 07:29:01;;;;;;;3.93;3.73;;;;;;;;;;4982370;28;24396;-63
2021/08/20 07:31:26;;;;;;;3.75;3.45;;;;;;;;;;4981133;28;24487;-64
2021/08/20 07:33:52;;;;;;;3.40;3.20;;;;;;;;;;4981111;28;24400;-63
2021/08/20 07:36:17;;;;;;;3.20;3.00;;;;;;;;;;4978733;28;24460;-63
2021/08/20 07:38:42;;;;;;;3.50;3.30;;;;;;;;;;4984353;28;24459;-64
2021/08/20 07:41:07;;;;;;;3.67;3.47;;;;;;;;;;4982572;28;24393;-64
2021/08/20 07:43:33;;;;;;;3.40;3.20;;;;;;;;;;4980581;28;24432;-63
2021/08/20 07:45:59;;;;;;;3.63;3.42;;;;;;;;;;4978966;28;24397;-63
2021/08/20 07:48:24;;;;;;;3.70;3.40;;;;;;;;;;4979892;28;24986;-63
2021/08/20 07:50:50;;;;;;;3.90;3.60;;;;;;;;;;4981855;28;24416;-63
2021/08/20 07:53:18;;;;;;;3.90;3.60;;;;;;;;;;4984171;28;25054;-62
2021/08/20 07:55:43;;;;;;;3.53;3.22;;;;;;;;;;4982505;28;24962;-63
2021/08/20 07:58:08;;;;;;;3.30;3.10;;;;;;;;;;4978767;28;24401;-63
2021/08/20 08:00:34;;;;;;;3.10;2.90;;;;;;;;;;4979115;28;24397;-63
2021/08/20 08:03:00;;;;;;;3.30;3.10;;;;;;;;;;4981002;28;25022;-63
2021/08/20 08:05:25;;;;;;;3.20;3.00;;;;;;;;;;4984109;28;24396;-63
2021/08/20 08:07:50;;;;;;;3.00;2.80;;;;;;;;;;4983881;28;24385;-63
2021/08/20 08:10:16;;;;;;;2.90;2.70;;;;;;;;;;4983145;28;24959;-64
2021/08/20 08:12:41;;;;;;;2.80;2.60;;;;;;;;;;4982455;28;24955;-63
2021/08/20 08:15:07;;;;;;;3.07;2.87;;;;;;;;;;4984802;28;24393;-63
2021/08/20 08:17:33;;;;;;;2.95;2.75;;;;;;;;;;4987856;28;24456;-63
2021/08/20 08:19:58;;;;;;;2.80;2.60;;;;;;;;;;4986294;28;24500;-63
2021/08/20 08:22:23;;;;;;;2.80;2.60;;;;;;;;;;4982776;28;24494;-63
2021/08/20 08:24:48;;;;;;;3.00;2.80;;;;;;;;;;4984724;28;24529;-63
2021/08/20 08:27:13;;;;;;;2.93;2.80;;;;;;;;;;4981984;28;24393;-63
2021/08/20 08:29:38;;;;;;;2.90;2.70;;;;;;;;;;4984456;28;24508;-63
2021/08/20 08:32:04;;;;;;;3.40;3.20;;;;;;;;;;4986307;28;24412;-63
2021/08/20 08:34:29;;;;;;;3.40;3.20;;;;;;;;;;4987842;28;24945;-63
2021/08/20 08:36:54;;;;;;;3.77;3.50;;;;;;;;;;4982300;28;24980;-63
2021/08/20 08:39:19;;;;;;;3.10;2.90;;;;;;;;;;4984074;28;24397;-63
2021/08/20 08:41:44;;;;;;;3.50;3.30;;;;;;;;;;4982629;28;24859;-63
2021/08/20 08:44:10;;;;;;;3.00;2.80;;;;;;;;;;4984268;28;24408;-63
2021/08/20 08:46:37;;;;;;;3.13;2.93;;;;;;;;;;4987852;28;24788;-64
2021/08/20 08:49:03;;;;;;;3.40;3.20;;;;;;;;;;4983738;28;24946;-63
2021/08/20 08:51:29;;;;;;;3.30;3.10;;;;;;;;;;4982250;28;24816;-64
2021/08/20 08:53:54;;;;;;;4.20;3.80;;;;;;;;;;4982034;28;24524;-64
2021/08/20 08:56:19;;;;;;;3.53;3.33;;;;;;;;;;4985448;28;24408;-64
2021/08/20 08:58:45;;;;;;;3.70;3.50;;;;;;;;;;4987206;28;24712;-63
2021/08/20 09:01:25;;;;;;;3.50;3.30;;;;;;;;;;4983902;28;24389;-63
2021/08/20 09:04:05;;;;;;;4.40;4.10;;;;;;;;;;4983712;28;24432;-63
2021/08/20 09:06:40;;;;;;;3.50;3.20;;;;;;;;;;4981560;28;25205;-64
2021/08/20 09:09:06;;;;;;;3.88;3.58;;;;;;;;;;4985083;28;24448;-63
2021/08/20 09:11:32;;;;;;;3.80;3.50;;;;;;;;;;4987417;28;24424;-64
2021/08/20 09:13:57;;;;;;;4.40;4.10;;;;;;;;;;4981385;28;24401;-62
2021/08/20 09:16:22;;;;;;;4.60;4.30;;;;;;;;;;4981302;28;24962;-64
2021/08/20 09:19:06;;;;;;;3.90;3.70;;;;;;;;;;4982539;28;24990;-63
2021/08/20 09:21:31;;;;;;;4.20;3.90;;;;;;;;;;4987024;28;24448;-63
2021/08/20 09:23:56;;;;;;;4.18;3.78;;;;;;;;;;4987093;28;24435;-63
2021/08/20 09:26:24;;;;;;;3.25;3.05;;;;;;;;;;4982870;28;24415;-64
2021/08/20 09:28:49;;;;;;;3.50;3.30;;;;;;;;;;4983059;28;25181;-64
2021/08/20 09:31:14;;;;;;;3.50;3.30;;;;;;;;;;4981532;28;24489;-64
2021/08/20 09:33:42;;;;;;;3.40;3.20;;;;;;;;;;4985266;28;24816;-63
2021/08/20 09:36:09;;;;;;;3.08;2.88;;;;;;;;;;4984630;28;24976;-62
2021/08/20 09:38:38;;;;;;;3.58;3.38;;;;;;;;;;4984697;28;24974;-63
2021/08/20 09:41:07;;;;;;;3.60;3.40;;;;;;;;;;4980420;28;24421;-63
2021/08/20 09:43:35;;;;;;;3.90;3.50;;;;;;;;;;4986587;28;24491;-63
2021/08/20 09:46:00;;;;;;;3.20;3.00;;;;;;;;;;4984949;28;24448;-63
2021/08/20 09:48:43;;;;;;;3.30;3.10;;;;;;;;;;4982796;28;24452;-62
2021/08/20 09:51:09;;;;;;;2.83;2.63;;;;;;;;;;4980840;28;24935;-62
2021/08/20 09:53:35;;;;;;;3.08;2.78;;;;;;;;;;4982204;28;24444;-62
2021/08/20 09:56:01;;;;;;;2.80;2.70;;;;;;;;;;4984524;28;24389;-62
2021/08/20 09:58:26;;;;;;;3.30;3.10;;;;;;;;;;4984579;28;24400;-62
2021/08/20 10:00:52;;;;;;;3.75;3.45;;;;;;;;;;4982460;28;24651;-63
2021/08/20 10:03:17;;;;;;;3.40;3.20;;;;;;;;;;4980778;28;24725;-62
2021/08/20 10:05:44;;;;;;;2.90;2.70;;;;;;;;;;4980600;28;24463;-62
2021/08/20 10:08:12;;;;;;;3.00;2.80;;;;;;;;;;4984176;28;24666;-62
2021/08/20 10:10:40;;;;;;;3.70;3.40;;;;;;;;;;4986154;28;24417;-63
2021/08/20 10:13:06;;;;;;;3.40;3.20;;;;;;;;;;4980600;28;24463;-63
2021/08/20 10:15:32;;;;;;;3.10;2.90;;;;;;;;;;4963170;28;24445;-63
2021/08/20 10:17:58;;;;;;;2.78;2.60;;;;;;;;;;4980493;28;24444;-63
2021/08/20 10:20:23;;;;;;;2.70;2.50;;;;;;;;;;4983640;28;24808;-63
2021/08/20 10:22:48;;;;;;;2.70;2.50;;;;;;;;;;4985927;28;24493;-63
2021/08/20 10:25:14;;;;;;;3.38;3.17;;;;;;;;;;4981941;28;24408;-63
2021/08/20 10:27:40;;;;;;;2.70;2.57;;;;;;;;;;4980776;28;24834;-62
2021/08/20 10:30:06;;;;;;;3.00;2.80;;;;;;;;;;4979909;28;24401;-62
2021/08/20 10:32:31;;;;;;;3.20;3.00;;;;;;;;;;4982050;28;24437;-62
2021/08/20 10:34:57;;;;;;;2.80;2.60;;;;;;;;;;4985219;28;24521;-63
2021/08/20 10:37:22;;;;;;;2.97;2.77;;;;;;;;;;4984055;28;24539;-62
2021/08/20 10:39:48;;;;;;;3.40;3.20;;;;;;;;;;4981686;28;24962;-62
2021/08/20 10:42:14;;;;;;;3.28;3.08;;;;;;;;;;4979763;28;24497;-62
2021/08/20 10:44:53;;;;;;;3.20;3.00;;;;;;;;;;4980257;28;24430;-63
2021/08/20 10:47:22;;;;;;;3.20;3.00;;;;;;;;;;4979857;28;24402;-62
2021/08/20 10:49:48;;;;;;;3.00;2.80;;;;;;;;;;4985204;28;24393;-62
2021/08/20 10:52:29;;;;;;;2.40;2.30;;;;;;;;;;4982886;28;24922;-62
2021/08/20 10:54:54;;;;;;;2.90;2.70;;;;;;;;;;4979866;28;24421;-62
2021/08/20 10:57:35;;;;;;;2.70;2.50;;;;;;;;;;4980158;28;24396;-63
2021/08/20 11:00:01;;;;;;;3.20;3.00;;;;;;;;;;4979879;28;25393;-61
2021/08/20 11:02:26;;;;;;;2.70;2.55;;;;;;;;;;4982521;28;24433;-62
2021/08/20 11:04:56;;;;;;;2.50;2.40;;;;;;;;;;4984948;28;24444;-61
2021/08/20 11:07:37;;;;;;;2.80;2.60;;;;;;;;;;4980173;28;24784;-61
2021/08/20 11:10:08;;;;;;;2.90;2.70;;;;;;;;;;4979157;28;24452;-62
2021/08/20 11:12:37;;;;;;;3.10;2.90;;;;;;;;;;4981001;28;24425;-62
2021/08/20 11:15:17;;;;;;;3.10;2.90;;;;;;;;;;4982891;28;24412;-62
2021/08/20 11:17:48;;;;;;;2.90;2.70;;;;;;;;;;4982615;28;25010;-62
2021/08/20 11:20:17;;;;;;;2.90;2.70;;;;;;;;;;4979162;28;24405;-63
2021/08/20 11:22:42;;;;;;;3.20;3.00;;;;;;;;;;4979289;28;24943;-63
2021/08/20 11:25:10;;;;;;;3.13;2.92;;;;;;;;;;4979629;28;24451;-63
2021/08/20 11:27:35;;;;;;;4.00;3.70;;;;;;;;;;4982740;28;24749;-63
2021/08/20 11:30:01;;;;;;;3.20;3.00;;;;;;;;;;4982849;28;24417;-63
2021/08/20 11:32:26;;;;;;;2.70;2.50;;;;;;;;;;4982322;28;24436;-64
2021/08/20 11:34:51;;;;;;;3.33;3.13;;;;;;;;;;4981111;28;24495;-62
2021/08/20 11:37:17;;;;;;;3.50;2.90;;;;;;;;;;4979374;28;24386;-63
2021/08/20 11:39:47;;;;;;;3.50;3.20;;;;;;;;;;4982693;28;24393;-63
2021/08/20 11:42:12;;;;;;;3.55;3.30;;;;;;;;;;4981867;28;24464;-63
2021/08/20 11:44:41;;;;;;;2.90;2.70;;;;;;;;;;4980636;28;24998;-63
2021/08/20 11:47:06;;;;;;;3.58;3.38;;;;;;;;;;4978789;28;24396;-61
2021/08/20 11:49:32;;;;;;;2.93;2.73;;;;;;;;;;4980816;28;24409;-62
2021/08/20 11:52:09;;;;;;;3.23;3.03;;;;;;;;;;4982517;28;24475;-62
2021/08/20 11:54:35;;;;;;;3.38;3.17;;;;;;;;;;4983770;28;25424;-61
2021/08/20 11:57:00;;;;;;;3.20;3.00;;;;;;;;;;4978903;28;24401;-62
2021/08/20 11:59:25;;;;;;;3.10;2.90;;;;;;;;;;4978883;28;24522;-62
2021/08/20 12:01:54;;;;;;;3.17;2.97;;;;;;;;;;4980423;28;24483;-62
2021/08/20 12:04:21;;;;;;;3.70;3.40;;;;;;;;;;4978955;28;24420;-62
2021/08/20 12:06:46;;;;;;;4.30;4.00;;;;;;;;;;4984270;28;24393;-61
2021/08/20 12:09:12;;;;;;;4.50;4.20;;;;;;;;;;4982193;28;25037;-62
2021/08/20 12:11:37;;;;;;;3.90;3.60;;;;;;;;;;4980578;28;24959;-62
2021/08/20 12:14:03;;;;;;;4.40;4.00;;;;;;;;;;4978524;28;24455;-62
2021/08/20 12:16:39;;;;;;;4.35;4.05;;;;;;;;;;4980368;28;24405;-62
2021/08/20 12:19:12;;;;;;;4.20;3.90;;;;;;;;;;4982262;28;24409;-62
2021/08/20 12:21:37;;;;;;;4.60;4.30;;;;;;;;;;4983722;28;24419;-62
2021/08/20 12:24:03;;;;;;;4.10;3.80;;;;;;;;;;4980288;28;24411;-62
2021/08/20 12:26:29;;;;;;;4.07;3.77;;;;;;;;;;4978816;28;24400;-62
2021/08/20 12:28:54;;;;;;;3.33;3.13;;;;;;;;;;4978730;28;24412;-62
2021/08/20 12:31:20;;;;;;;3.90;3.60;;;;;;;;;;4980506;28;24408;-62
2021/08/20 12:33:58;;;;;;;3.87;3.40;;;;;;;;;;4981919;28;24400;-62
2021/08/20 12:36:23;;;;;;;3.70;3.40;;;;;;;;;;4983794;28;24443;-62
2021/08/20 12:39:05;;;;;;;3.58;3.28;;;;;;;;;;4982063;28;24400;-62
2021/08/20 12:41:30;;;;;;;4.00;3.70;;;;;;;;;;4978123;28;24440;-61
2021/08/20 12:43:55;;;;;;;4.40;4.10;;;;;;;;;;4978870;28;24405;-61
2021/08/20 12:46:32;;;;;;;4.40;4.00;;;;;;;;;;4982200;28;24573;-62
2021/08/20 12:48:57;;;;;;;3.88;3.58;;;;;;;;;;4982024;28;24452;-61
2021/08/20 12:51:23;;;;;;;3.60;3.40;;;;;;;;;;4981891;28;24975;-61
2021/08/20 12:54:02;;;;;;;3.80;3.50;;;;;;;;;;4981080;28;24491;-61
2021/08/20 12:56:47;;;;;;;3.60;3.40;;;;;;;;;;4984090;28;24440;-62
2021/08/20 12:59:18;;;;;;;3.72;3.42;;;;;;;;;;4987353;28;24393;-62
2021/08/20 13:01:44;;;;;;;3.28;3.08;;;;;;;;;;4987456;28;24764;-62
2021/08/20 13:04:11;;;;;;;3.40;3.20;;;;;;;;;;4981970;28;25084;-61
2021/08/20 13:06:38;;;;;;;3.10;2.90;;;;;;;;;;4981729;28;24547;-62
2021/08/20 13:09:03;;;;;;;3.80;3.60;;;;;;;;;;4982027;28;24394;-62
2021/08/20 13:11:28;;;;;;;4.72;4.32;;;;;;;;;;4985225;28;24416;-62
2021/08/20 13:13:54;;;;;;;4.75;4.25;;;;;;;;;;4985202;28;24401;-64
2021/08/20 13:16:19;;;;;;;5.57;5.18;;;;;;;;;;4985184;28;24389;-63
2021/08/20 13:18:44;;;;;;;10.52;8.25;;;;;;;;;;4983015;28;25034;-68
2021/08/20 13:21:10;;;;;;;8.40;7.60;;;;;;;;;;4981441;28;24405;-68
2021/08/20 13:23:35;;;;;;;8.23;7.53;;;;;;;;;;4981246;28;24531;-68
2021/08/20 13:26:03;;;;;;;7.40;6.80;;;;;;;;;;4985034;28;24752;-67
2021/08/20 13:28:28;;;;;;;7.60;7.00;;;;;;;;;;4986671;28;24408;-67
2021/08/20 13:30:53;;;;;;;7.73;7.03;;;;;;;;;;4981886;28;24401;-66
2021/08/20 13:33:18;;;;;;;6.37;5.87;;;;;;;;;;4982969;28;24800;-66
2021/08/20 13:35:44;;;;;;;6.03;5.63;;;;;;;;;;4981362;28;24445;-67
2021/08/20 13:38:09;;;;;;;6.55;6.05;;;;;;;;;;4983559;28;24467;-68
2021/08/20 13:40:35;;;;;;;7.03;6.53;;;;;;;;;;4986644;28;24901;-66
2021/08/20 13:43:09;;;;;;;6.50;6.00;;;;;;;;;;4983135;28;24413;-67
2021/08/20 13:45:37;;;;;;;6.22;5.72;;;;;;;;;;4981277;28;24524;-67
2021/08/20 13:48:03;;;;;;;6.72;6.22;;;;;;;;;;4981270;28;24389;-67
2021/08/20 13:50:28;;;;;;;6.63;6.13;;;;;;;;;;4981292;28;24403;-65
2021/08/20 13:52:54;;;;;;;7.57;6.95;;;;;;;;;;4984480;28;24978;-65
2021/08/20 13:55:19;;;;;;;7.40;6.80;;;;;;;;;;4985834;28;24465;-65
2021/08/20 13:57:44;;;;;;;7.10;6.60;;;;;;;;;;4982713;28;24392;-65
2021/08/20 14:00:09;;;;;;;6.30;5.90;;;;;;;;;;4980797;28;24397;-65
2021/08/20 14:02:35;;;;;;;7.28;6.78;;;;;;;;;;4980439;28;24405;-65
2021/08/20 14:05:00;;;;;;;6.33;5.93;;;;;;;;;;4983971;28;24492;-65
2021/08/20 14:07:25;;;;;;;5.80;5.40;;;;;;;;;;4986267;28;24401;-64
2021/08/20 14:09:51;;;;;;;5.67;5.27;;;;;;;;;;4985486;28;24419;-64
2021/08/20 14:12:16;;;;;;;4.80;4.50;;;;;;;;;;4980439;28;24428;-65
2021/08/20 14:14:41;;;;;;;5.47;5.00;;;;;;;;;;4980559;28;24791;-65
2021/08/20 14:17:06;;;;;;;6.03;5.60;;;;;;;;;;4982251;28;24923;-65
2021/08/20 14:19:31;;;;;;;5.18;4.88;;;;;;;;;;4985757;28;24417;-64
2021/08/20 14:21:57;;;;;;;4.00;3.80;;;;;;;;;;4982316;28;24400;-65
2021/08/20 14:24:22;;;;;;;4.37;4.07;;;;;;;;;;4980263;28;24945;-65
2021/08/20 14:26:47;;;;;;;4.65;4.35;;;;;;;;;;4981957;28;24408;-65
2021/08/20 14:29:12;;;;;;;4.93;4.63;;;;;;;;;;4980690;28;25358;-65
2021/08/20 14:31:38;;;;;;;4.40;4.10;;;;;;;;;;4985411;28;24408;-67
2021/08/20 14:34:03;;;;;;;3.83;3.60;;;;;;;;;;4983648;28;24420;-66
2021/08/20 14:36:30;;;;;;;4.40;4.10;;;;;;;;;;4980415;28;24991;-64